Time;durP1;ratioP1;P1;durP2;ratioP2;P2;SDS_P1;SDS_P2;PMS_P1;PMS_P2;Temp;Humidity;BMP_temperature;BMP_pressure;BME280_temperature;BME280_humidity;BME280_pressure;Samples;Min_cycle;Max_cycle;Signal;HPM_P1;HPM_P2
2022/07/24 00:01:20;;;;;;;12.73;11.37;;;23.70;99.90;;;;;;5054762;28;20536;-56
2022/07/24 00:03:47;;;;;;;12.40;11.40;;;23.70;99.90;;;;;;5054806;28;20814;-56
2022/07/24 00:06:14;;;;;;;11.90;10.70;;;23.80;99.90;;;;;;5054889;28;20488;-56
2022/07/24 00:08:42;;;;;;;11.67;10.63;;;23.80;99.90;;;;;;5054865;28;20453;-56
2022/07/24 00:11:09;;;;;;;10.90;9.90;;;23.70;99.90;;;;;;5054834;28;20544;-56
2022/07/24 00:13:36;;;;;;;13.03;10.67;;;23.60;99.90;;;;;;5054714;28;20449;-56
2022/07/24 00:16:05;;;;;;;11.30;10.30;;;23.70;99.90;;;;;;5055197;28;20449;-56
2022/07/24 00:18:33;;;;;;;10.83;9.83;;;23.60;99.90;;;;;;5054754;28;20453;-56
2022/07/24 00:21:00;;;;;;;11.60;10.60;;;23.50;99.90;;;;;;5054770;28;20896;-56
2022/07/24 00:23:27;;;;;;;11.40;10.30;;;23.60;99.90;;;;;;5054877;28;20791;-56
2022/07/24 00:25:55;;;;;;;10.80;9.80;;;23.70;99.90;;;;;;5054640;28;20479;-56
2022/07/24 00:28:22;;;;;;;10.90;10.00;;;;;;;;;;5054605;28;20536;-56
2022/07/24 00:30:49;;;;;;;9.90;9.03;;;23.80;99.90;;;;;;5054351;28;20999;-56
2022/07/24 00:33:18;;;;;;;11.27;10.27;;;23.80;99.90;;;;;;5054235;28;20548;-56
2022/07/24 00:35:45;;;;;;;9.80;8.90;;;23.80;99.90;;;;;;5054191;28;20464;-56
2022/07/24 00:38:12;;;;;;;10.93;9.83;;;23.80;99.90;;;;;;5054256;28;20449;-56
2022/07/24 00:40:40;;;;;;;10.10;9.20;;;23.60;99.90;;;;;;5054242;28;20487;-56
2022/07/24 00:43:07;;;;;;;11.43;10.37;;;23.50;99.90;;;;;;5054046;28;20909;-56
2022/07/24 00:45:35;;;;;;;10.50;9.47;;;23.60;99.90;;;;;;5054136;28;20445;-56
2022/07/24 00:48:02;;;;;;;10.23;9.33;;;23.70;99.90;;;;;;5053860;28;21044;-56
2022/07/24 00:50:30;;;;;;;12.37;9.90;;;23.70;99.90;;;;;;5053718;28;20504;-56
2022/07/24 00:52:58;;;;;;;10.60;9.50;;;23.70;99.90;;;;;;5054181;28;20561;-56
2022/07/24 00:55:26;;;;;;;11.00;10.10;;;23.70;99.90;;;;;;5053771;28;20453;-56
2022/07/24 00:57:53;;;;;;;9.60;8.70;;;23.60;99.90;;;;;;5053741;28;20957;-56
2022/07/24 01:00:22;;;;;;;11.50;10.40;;;23.60;99.90;;;;;;5054085;28;20576;-56
2022/07/24 01:02:49;;;;;;;10.80;9.80;;;23.70;99.90;;;;;;5054303;28;20541;-56
2022/07/24 01:05:18;;;;;;;11.27;10.17;;;23.70;99.90;;;;;;5053684;28;20449;-56
2022/07/24 01:07:47;;;;;;;12.00;10.90;;;23.70;99.90;;;;;;5053530;28;20933;-56
2022/07/24 01:10:14;;;;;;;11.13;10.13;;;23.60;99.90;;;;;;5053855;28;20569;-55
2022/07/24 01:12:42;;;;;;;10.77;9.70;;;23.60;99.90;;;;;;5053335;28;20568;-56
2022/07/24 01:15:11;;;;;;;11.10;10.07;;;23.50;99.90;;;;;;5053697;28;20528;-56
2022/07/24 01:17:41;;;;;;;10.40;9.60;;;23.50;99.90;;;;;;5053802;28;20503;-56
2022/07/24 01:20:11;;;;;;;10.97;10.07;;;23.40;99.90;;;;;;5053329;28;20465;-56
2022/07/24 01:22:39;;;;;;;10.60;9.57;;;23.50;99.90;;;;;;5053615;28;20538;-55
2022/07/24 01:25:08;;;;;;;11.87;10.77;;;23.60;99.90;;;;;;5053919;28;20437;-56
2022/07/24 01:27:35;;;;;;;12.10;11.10;;;23.60;99.90;;;;;;5053335;28;20445;-56
2022/07/24 01:30:02;;;;;;;13.43;12.17;;;23.70;99.90;;;;;;5053422;28;20556;-55
2022/07/24 01:32:29;;;;;;;13.73;12.37;;;23.70;99.90;;;;;;5053395;28;20481;-55
2022/07/24 01:34:56;;;;;;;12.70;11.60;;;23.70;99.90;;;;;;5053574;28;20457;-56
2022/07/24 01:37:24;;;;;;;12.80;11.70;;;23.50;99.90;;;;;;5053074;28;20452;-56
2022/07/24 01:39:52;;;;;;;12.57;11.47;;;23.50;99.90;;;;;;5053284;28;20500;-55
2022/07/24 01:42:20;;;;;;;13.73;12.40;;;23.60;99.90;;;;;;5052988;28;20496;-56
2022/07/24 01:44:48;;;;;;;13.70;12.47;;;23.60;99.90;;;;;;5052954;28;20445;-56
2022/07/24 01:47:18;;;;;;;14.27;12.87;;;23.50;99.90;;;;;;5053020;28;20464;-56
2022/07/24 01:49:46;;;;;;;16.07;14.57;;;23.50;99.90;;;;;;5052972;28;20523;-56
2022/07/24 01:52:13;;;;;;;14.73;13.20;;;23.50;99.90;;;;;;5052830;28;20985;-55
2022/07/24 01:54:40;;;;;;;13.40;12.20;;;23.30;99.90;;;;;;5052914;28;20449;-55
2022/07/24 01:57:08;;;;;;;14.97;13.67;;;23.30;99.90;;;;;;5053281;28;20536;-56
2022/07/24 01:59:36;;;;;;;15.00;13.40;;;23.30;99.90;;;;;;5052757;28;20469;-56
2022/07/24 02:02:03;;;;;;;15.10;13.60;;;23.40;99.90;;;;;;5052933;28;20865;-56
2022/07/24 02:04:30;;;;;;;15.77;13.60;;;23.40;99.90;;;;;;5052992;28;20434;-56
2022/07/24 02:06:57;;;;;;;15.80;12.30;;;23.40;99.90;;;;;;5052972;28;20503;-56
2022/07/24 02:09:25;;;;;;;13.63;12.43;;;23.30;99.90;;;;;;5052980;28;20453;-56
2022/07/24 02:11:52;;;;;;;13.27;11.97;;;23.10;99.90;;;;;;5052771;28;20986;-56
2022/07/24 02:14:21;;;;;;;15.43;11.67;;;22.90;99.90;;;;;;5053173;28;20880;-56
2022/07/24 02:16:48;;;;;;;13.63;12.53;;;22.80;99.90;;;;;;5055155;28;20572;-56
2022/07/24 02:19:15;;;;;;;14.33;13.10;;;22.70;99.90;;;;;;5056869;28;20432;-56
2022/07/24 02:21:43;;;;;;;14.67;13.10;;;22.80;99.90;;;;;;5057135;28;20488;-56
2022/07/24 02:24:10;;;;;;;15.53;14.13;;;22.80;99.90;;;;;;5056683;28;20541;-56
2022/07/24 02:26:37;;;;;;;17.00;15.40;;;22.90;99.90;;;;;;5056639;28;20814;-56
2022/07/24 02:29:04;;;;;;;20.07;16.37;;;23.00;99.90;;;;;;5056687;28;20875;-56
2022/07/24 02:31:33;;;;;;;15.67;14.27;;;23.00;99.90;;;;;;5056803;28;20548;-56
2022/07/24 02:34:00;;;;;;;14.53;13.23;;;22.90;99.90;;;;;;5056433;28;20530;-56
2022/07/24 02:36:27;;;;;;;12.27;11.17;;;22.70;99.90;;;;;;5056581;28;20480;-56
2022/07/24 02:38:55;;;;;;;13.50;12.20;;;22.60;99.90;;;;;;5056713;28;20500;-56
2022/07/24 02:41:22;;;;;;;12.83;11.73;;;22.40;99.90;;;;;;5056080;28;20484;-56
2022/07/24 02:43:49;;;;;;;13.43;12.17;;;22.40;99.90;;;;;;5056604;28;20445;-56
2022/07/24 02:46:16;;;;;;;12.77;11.60;;;22.40;99.90;;;;;;5056568;28;20441;-56
2022/07/24 02:48:45;;;;;;;13.00;11.90;;;22.40;99.90;;;;;;5056238;28;20449;-56
2022/07/24 02:51:12;;;;;;;13.97;12.63;;;22.30;99.90;;;;;;5056563;28;20468;-56
2022/07/24 02:53:39;;;;;;;14.60;13.20;;;22.30;99.90;;;;;;5056353;28;20575;-56
2022/07/24 02:56:08;;;;;;;15.00;13.80;;;22.40;99.90;;;;;;5056336;28;20499;-56
2022/07/24 02:58:35;;;;;;;16.27;14.77;;;22.30;99.90;;;;;;5056639;28;20476;-55
2022/07/24 03:01:02;;;;;;;14.50;13.30;;;22.30;99.90;;;;;;5056220;28;20546;-55
2022/07/24 03:03:30;;;;;;;14.37;13.07;;;22.30;99.90;;;;;;5056249;28;20523;-56
2022/07/24 03:05:58;;;;;;;16.83;15.13;;;22.20;99.90;;;;;;5056028;28;20479;-55
2022/07/24 03:08:25;;;;;;;17.90;14.93;;;22.20;99.90;;;;;;5055990;28;21024;-55
2022/07/24 03:10:52;;;;;;;16.10;13.43;;;22.20;99.90;;;;;;5056224;28;20567;-55
2022/07/24 03:13:20;;;;;;;16.50;14.90;;;22.10;99.90;;;;;;5055582;28;20535;-56
2022/07/24 03:15:47;;;;;;;16.43;14.70;;;22.10;99.90;;;;;;5055942;28;20787;-56
2022/07/24 03:18:14;;;;;;;16.20;14.83;;;22.10;99.90;;;;;;5055978;28;20456;-56
2022/07/24 03:20:41;;;;;;;15.90;14.50;;;22.20;99.90;;;;;;5055572;28;20511;-55
2022/07/24 03:23:10;;;;;;;16.53;15.07;;;22.30;99.90;;;;;;5055693;28;20530;-56
2022/07/24 03:25:37;;;;;;;16.93;15.27;;;22.30;99.90;;;;;;5055753;28;20545;-56
2022/07/24 03:28:05;;;;;;;16.63;15.13;;;22.20;99.90;;;;;;5054225;28;20996;-56
2022/07/24 03:30:32;;;;;;;15.77;14.23;;;22.30;99.90;;;;;;5055509;28;20555;-55
2022/07/24 03:32:59;;;;;;;17.77;16.07;;;22.30;99.90;;;;;;5055317;28;20568;-55
2022/07/24 03:35:26;;;;;;;17.93;16.23;;;22.30;99.90;;;;;;5055312;28;20449;-56
2022/07/24 03:37:53;;;;;;;17.33;15.53;;;22.30;99.90;;;;;;5055798;28;20452;-55
2022/07/24 03:40:22;;;;;;;16.97;15.47;;;22.30;99.90;;;;;;5055295;28;20957;-56
2022/07/24 03:42:49;;;;;;;17.13;15.50;;;22.30;99.90;;;;;;5055126;28;20526;-55
2022/07/24 03:45:16;;;;;;;17.00;15.30;;;22.30;99.90;;;;;;5055590;28;20528;-55
2022/07/24 03:47:43;;;;;;;16.50;15.10;;;22.30;99.90;;;;;;5055408;28;20445;-55
2022/07/24 03:50:10;;;;;;;16.13;14.53;;;22.30;99.90;;;;;;5054977;28;20496;-55
2022/07/24 03:52:37;;;;;;;16.00;14.50;;;22.00;99.90;;;;;;5055065;28;20481;-56
2022/07/24 03:55:07;;;;;;;17.17;15.47;;;21.90;99.90;;;;;;5055180;28;20953;-56
2022/07/24 03:57:35;;;;;;;18.87;17.17;;;22.00;99.90;;;;;;5054853;28;20946;-56
2022/07/24 04:00:03;;;;;;;18.43;16.60;;;22.00;99.90;;;;;;5055278;28;20548;-56
2022/07/24 04:02:30;;;;;;;17.30;15.80;;;22.10;99.90;;;;;;5055292;28;20546;-56
2022/07/24 04:04:57;;;;;;;15.40;14.10;;;22.10;99.90;;;;;;5055095;28;20446;-56
2022/07/24 04:07:25;;;;;;;14.83;13.47;;;22.10;99.90;;;;;;5054776;28;20449;-56
2022/07/24 04:09:52;;;;;;;15.63;14.23;;;22.10;99.90;;;;;;5055124;28;20528;-55
2022/07/24 04:12:19;;;;;;;15.03;13.63;;;22.10;99.90;;;;;;5054728;28;20479;-55
2022/07/24 04:14:47;;;;;;;13.50;12.10;;;22.10;99.90;;;;;;5054894;28;20452;-56
2022/07/24 04:17:15;;;;;;;14.00;12.80;;;22.30;99.90;;;;;;5054694;28;20449;-56
2022/07/24 04:19:42;;;;;;;15.10;13.13;;;22.30;99.90;;;;;;5054481;28;20500;-56
2022/07/24 04:22:09;;;;;;;15.20;12.53;;;22.30;99.90;;;;;;5054506;28;20544;-56
2022/07/24 04:24:37;;;;;;;13.77;12.47;;;22.20;99.90;;;;;;5054810;28;20469;-56
2022/07/24 04:27:04;;;;;;;15.13;13.73;;;22.30;99.90;;;;;;5054414;28;20503;-56
2022/07/24 04:29:31;;;;;;;14.97;13.57;;;22.20;99.90;;;;;;5054600;28;20466;-56
2022/07/24 04:32:00;;;;;;;14.77;13.47;;;22.30;99.90;;;;;;5054434;28;20455;-56
2022/07/24 04:34:27;;;;;;;14.13;12.73;;;22.30;99.90;;;;;;5054137;28;20819;-56
2022/07/24 04:36:54;;;;;;;13.47;12.07;;;22.20;99.90;;;;;;5054236;28;20536;-55
2022/07/24 04:39:21;;;;;;;13.60;12.40;;;22.20;99.90;;;;;;5054047;28;20536;-56
2022/07/24 04:41:49;;;;;;;15.70;14.00;;;22.20;99.90;;;;;;5054099;28;20481;-55
2022/07/24 04:44:16;;;;;;;13.13;12.03;;;22.10;99.90;;;;;;5053975;28;20535;-55
2022/07/24 04:46:43;;;;;;;14.77;13.53;;;22.00;99.90;;;;;;5054484;28;20449;-55
2022/07/24 04:49:11;;;;;;;15.83;14.33;;;22.10;99.90;;;;;;5054182;28;20523;-56
2022/07/24 04:51:39;;;;;;;14.50;13.30;;;22.20;99.90;;;;;;5053932;28;20449;-56
2022/07/24 04:54:06;;;;;;;16.33;13.63;;;22.20;99.90;;;;;;5054225;28;20569;-56
2022/07/24 04:56:33;;;;;;;16.20;14.50;;;22.30;99.90;;;;;;5054115;28;20521;-56
2022/07/24 04:59:02;;;;;;;13.90;12.50;;;22.30;99.90;;;;;;5053799;28;20959;-56
2022/07/24 05:01:29;;;;;;;14.47;13.17;;;22.30;99.90;;;;;;5053702;28;20857;-56
2022/07/24 05:03:58;;;;;;;14.73;12.73;;;22.30;99.90;;;;;;5054149;28;20487;-55
2022/07/24 05:06:27;;;;;;;13.07;11.87;;;22.30;99.90;;;;;;5053903;28;20453;-56
2022/07/24 05:08:54;;;;;;;14.00;11.97;;;22.30;99.90;;;;;;5053535;28;20507;-55
2022/07/24 05:11:21;;;;;;;17.23;14.07;;;22.30;99.90;;;;;;5053700;28;21040;-55
2022/07/24 05:13:48;;;;;;;13.87;12.20;;;22.30;99.90;;;;;;5053482;28;20461;-55
2022/07/24 05:16:15;;;;;;;15.13;13.73;;;22.40;99.90;;;;;;5053761;28;20441;-55
2022/07/24 05:18:42;;;;;;;12.93;11.80;;;22.40;99.90;;;;;;5053542;28;20445;-56
2022/07/24 05:21:09;;;;;;;13.10;12.00;;;22.40;99.90;;;;;;5053305;28;20556;-56
2022/07/24 05:23:38;;;;;;;14.83;13.13;;;22.40;99.90;;;;;;5053599;28;20449;-55
2022/07/24 05:26:05;;;;;;;15.00;13.40;;;22.50;99.90;;;;;;5053402;28;20485;-55
2022/07/24 05:28:33;;;;;;;15.00;13.57;;;22.50;99.90;;;;;;5053582;28;20532;-55
2022/07/24 05:31:01;;;;;;;16.87;15.37;;;22.50;99.90;;;;;;5053119;28;20495;-56
2022/07/24 05:33:28;;;;;;;14.80;13.40;;;22.50;99.90;;;;;;5053259;28;20569;-56
2022/07/24 05:35:55;;;;;;;15.20;13.57;;;22.40;99.90;;;;;;5053468;28;20539;-55
2022/07/24 05:38:22;;;;;;;14.57;13.13;;;22.50;99.90;;;;;;5053120;28;20457;-55
2022/07/24 05:40:51;;;;;;;14.10;12.83;;;22.60;99.90;;;;;;5053055;28;20489;-56
2022/07/24 05:43:18;;;;;;;14.87;13.57;;;22.70;99.90;;;;;;5053327;28;20774;-56
2022/07/24 05:45:45;;;;;;;15.37;13.77;;;22.80;99.90;;;;;;5053233;28;20451;-56
2022/07/24 05:48:13;;;;;;;14.80;13.50;;;22.90;99.90;;;;;;5053445;28;20587;-55
2022/07/24 05:50:40;;;;;;;13.73;12.50;;;23.00;99.90;;;;;;5052433;28;20817;-55
2022/07/24 05:53:07;;;;;;;14.43;13.13;;;23.00;99.90;;;;;;5052829;28;20484;-56
2022/07/24 05:55:34;;;;;;;13.73;12.40;;;23.10;99.90;;;;;;5052939;28;20449;-55
2022/07/24 05:58:03;;;;;;;12.40;11.20;;;23.10;99.90;;;;;;5053060;28;20457;-56
2022/07/24 06:00:31;;;;;;;13.33;12.13;;;23.20;99.90;;;;;;5053120;28;20477;-56
2022/07/24 06:02:58;;;;;;;15.43;11.87;;;23.20;99.90;;;;;;5053128;28;20445;-56
2022/07/24 06:05:25;;;;;;;13.57;11.87;;;23.30;99.90;;;;;;5052933;28;20444;-55
2022/07/24 06:07:52;;;;;;;13.67;12.50;;;23.30;99.90;;;;;;5053074;28;20452;-56
2022/07/24 06:10:19;;;;;;;12.73;11.50;;;23.30;99.90;;;;;;5052667;28;20579;-56
2022/07/24 06:12:46;;;;;;;12.70;11.60;;;23.40;99.90;;;;;;5052821;28;20972;-56
2022/07/24 06:15:15;;;;;;;13.73;12.43;;;23.40;99.90;;;;;;5052712;28;20507;-56
2022/07/24 06:17:42;;;;;;;11.70;10.60;;;23.40;99.90;;;;;;5052683;28;20449;-56
2022/07/24 06:20:12;;;;;;;12.60;11.47;;;23.50;99.90;;;;;;5053037;28;20504;-55
2022/07/24 06:22:39;;;;;;;12.03;11.03;;;23.70;99.90;;;;;;5052582;28;20456;-55
2022/07/24 06:25:08;;;;;;;11.53;10.53;;;23.80;99.90;;;;;;5052876;28;20449;-56
2022/07/24 06:27:40;;;;;;;11.83;10.83;;;23.80;99.90;;;;;;5052829;28;20548;-55
2022/07/24 06:30:12;;;;;;;12.50;11.33;;;23.90;99.90;;;;;;5052978;28;20548;-56
2022/07/24 06:32:41;;;;;;;11.80;10.60;;;23.90;99.90;;;;;;5052572;28;20430;-55
2022/07/24 06:35:09;;;;;;;12.50;11.40;;;23.90;99.90;;;;;;5052374;28;20492;-56
2022/07/24 06:37:36;;;;;;;12.00;10.80;;;24.00;99.90;;;;;;5052609;28;20449;-55
2022/07/24 06:40:04;;;;;;;13.70;10.80;;;24.00;99.90;;;;;;5052422;28;20902;-56
2022/07/24 06:42:31;;;;;;;11.87;10.87;;;24.00;99.90;;;;;;5052311;28;20481;-55
2022/07/24 06:44:58;;;;;;;11.60;10.60;;;24.00;99.90;;;;;;5052691;28;20811;-56
2022/07/24 06:47:26;;;;;;;11.53;10.47;;;24.10;99.90;;;;;;5052709;28;20444;-56
2022/07/24 06:49:54;;;;;;;11.63;10.57;;;24.10;99.90;;;;;;5052624;28;20466;-55
2022/07/24 06:52:22;;;;;;;11.93;10.90;;;24.20;99.90;;;;;;5052438;28;20934;-55
2022/07/24 06:54:50;;;;;;;12.70;11.60;;;24.30;99.90;;;;;;5052288;28;20563;-55
2022/07/24 06:57:17;;;;;;;13.20;11.53;;;24.40;99.90;;;;;;5052260;28;20547;-56
2022/07/24 06:59:45;;;;;;;12.63;11.17;;;24.50;99.90;;;;;;5052618;28;20469;-56
2022/07/24 07:02:12;;;;;;;15.83;11.03;;;24.60;99.90;;;;;;5053590;28;20449;-56
2022/07/24 07:04:40;;;;;;;11.23;10.27;;;24.70;99.90;;;;;;5055856;28;20559;-55
2022/07/24 07:07:08;;;;;;;12.17;11.13;;;24.80;99.90;;;;;;5056221;28;20547;-56
2022/07/24 07:09:36;;;;;;;11.97;10.77;;;24.80;99.90;;;;;;5056009;28;20481;-55
2022/07/24 07:12:04;;;;;;;11.67;10.57;;;24.90;99.90;;;;;;5055767;28;20453;-55
2022/07/24 07:14:31;;;;;;;11.47;10.57;;;24.90;99.90;;;;;;5055928;28;20933;-55
2022/07/24 07:16:58;;;;;;;12.40;10.93;;;25.10;99.90;;;;;;5055816;28;20453;-56
2022/07/24 07:19:25;;;;;;;12.33;11.03;;;25.10;99.90;;;;;;5055513;28;20850;-56
2022/07/24 07:21:53;;;;;;;11.10;10.20;;;25.10;99.90;;;;;;5055623;28;20453;-56
2022/07/24 07:24:21;;;;;;;11.63;10.53;;;25.20;99.90;;;;;;5055921;28;20440;-56
2022/07/24 07:26:48;;;;;;;13.53;11.30;;;25.20;99.90;;;;;;5055494;28;20484;-56
2022/07/24 07:29:16;;;;;;;11.60;10.60;;;25.20;99.90;;;;;;5055518;28;20540;-56
2022/07/24 07:31:46;;;;;;;12.03;11.03;;;25.50;99.90;;;;;;5056108;28;20462;-56
2022/07/24 07:34:13;;;;;;;12.57;11.57;;;25.90;99.90;;;;;;5055319;28;20564;-56
2022/07/24 07:36:40;;;;;;;13.47;12.10;;;26.40;99.90;;;;;;5055628;28;20536;-56
2022/07/24 07:39:09;;;;;;;11.80;10.80;;;27.20;99.90;;;;;;5055312;28;20929;-56
2022/07/24 07:41:40;;;;;;;12.70;11.40;;;27.80;99.90;;;;;;5055271;28;20484;-56
2022/07/24 07:44:08;;;;;;;11.60;10.60;;;28.20;99.90;;;;;;5055497;28;20786;-56
2022/07/24 07:46:35;;;;;;;11.77;10.67;;;28.70;99.90;;;;;;5055455;28;20534;-56
2022/07/24 07:49:05;;;;;;;12.43;11.30;;;28.80;99.90;;;;;;5055593;28;20441;-56
2022/07/24 07:51:32;;;;;;;13.00;11.90;;;28.70;99.90;;;;;;5055315;28;20648;-56
2022/07/24 07:53:59;;;;;;;13.00;11.80;;;28.40;99.90;;;;;;5054925;28;20975;-56
2022/07/24 07:56:32;;;;;;;11.40;10.47;;;28.60;99.90;;;;;;5055409;28;20580;-56
2022/07/24 07:59:01;;;;;;;13.03;11.90;;;28.80;99.90;;;;;;5055294;28;20453;-56
2022/07/24 08:01:28;;;;;;;11.93;10.90;;;28.90;99.90;;;;;;5054830;28;20469;-55
2022/07/24 08:03:58;;;;;;;12.30;11.33;;;28.80;99.90;;;;;;5054864;28;20441;-56
2022/07/24 08:06:25;;;;;;;11.90;10.90;;;28.90;99.20;;;;;;5054808;28;20532;-56
2022/07/24 08:08:53;;;;;;;13.40;10.67;;;29.40;98.90;;;;;;5054617;28;20463;-56
2022/07/24 08:11:20;;;;;;;12.73;10.57;;;30.00;97.50;;;;;;5054612;28;20504;-56
2022/07/24 08:13:47;;;;;;;10.00;9.13;;;30.40;97.20;;;;;;5053992;28;20457;-56
2022/07/24 08:16:16;;;;;;;10.17;9.20;;;30.60;95.20;;;;;;5054605;28;20453;-56
2022/07/24 08:18:43;;;;;;;10.73;9.83;;;31.10;99.90;;;;;;5054868;28;20520;-56
2022/07/24 08:21:10;;;;;;;10.70;9.80;;;31.30;99.90;;;;;;5054800;28;20552;-56
2022/07/24 08:23:37;;;;;;;10.07;9.27;;;31.20;99.90;;;;;;5054597;28;20484;-57
2022/07/24 08:26:04;;;;;;;9.67;8.77;;;31.10;99.50;;;;;;5054685;28;20810;-57
2022/07/24 08:28:32;;;;;;;10.10;9.10;;;31.40;92.80;;;;;;5054795;28;20445;-56
2022/07/24 08:30:59;;;;;;;10.20;9.40;;;31.80;92.50;;;;;;5054274;28;20512;-56
2022/07/24 08:33:27;;;;;;;9.90;9.10;;;31.70;91.50;;;;;;5054568;28;20445;-56
2022/07/24 08:35:54;;;;;;;10.53;9.63;;;31.80;90.90;;;;;;5054529;28;20912;-56
2022/07/24 08:38:22;;;;;;;9.90;9.00;;;;;;;;;;5054423;28;20804;-56
2022/07/24 08:40:50;;;;;;;10.70;9.83;;;32.30;90.20;;;;;;5054178;28;20558;-56
2022/07/24 08:43:18;;;;;;;10.13;9.20;;;32.20;90.00;;;;;;5054365;28;20772;-56
2022/07/24 08:45:45;;;;;;;9.40;8.70;;;32.00;88.50;;;;;;5053980;28;20941;-56
2022/07/24 08:48:12;;;;;;;9.90;9.00;;;32.40;87.70;;;;;;5053943;28;20532;-56
2022/07/24 08:50:43;;;;;;;9.60;8.80;;;32.80;86.50;;;;;;5054063;28;20456;-56
2022/07/24 08:53:10;;;;;;;10.23;9.43;;;32.60;83.40;;;;;;5054101;28;20475;-56
2022/07/24 08:55:38;;;;;;;9.63;8.83;;;32.50;82.90;;;;;;5053699;28;20495;-57
2022/07/24 08:58:06;;;;;;;10.13;8.87;;;32.20;81.80;;;;;;5054137;28;20532;-57
2022/07/24 09:00:38;;;;;;;11.67;9.30;;;32.40;84.40;;;;;;5053749;28;21034;-56
2022/07/24 09:03:06;;;;;;;8.60;7.87;;;33.00;81.00;;;;;;5053591;28;20555;-56
2022/07/24 09:05:35;;;;;;;10.27;9.30;;;33.20;77.90;;;;;;5053620;28;20458;-56
2022/07/24 09:08:14;;;;;;;9.47;8.67;;;32.90;80.50;;;;;;5054049;28;20448;-56
2022/07/24 09:10:41;;;;;;;10.00;9.10;;;33.40;78.40;;;;;;5054038;28;20478;-56
2022/07/24 09:13:16;;;;;;;11.30;9.03;;;33.90;77.50;;;;;;5053409;28;20448;-56
2022/07/24 09:15:48;;;;;;;9.90;9.10;;;34.30;76.00;;;;;;5053650;28;20566;-56
2022/07/24 09:18:29;;;;;;;9.47;8.47;;;;;;;;;;5053394;28;20445;-56
2022/07/24 09:20:57;;;;;;;9.07;8.37;;;32.90;74.50;;;;;;5053354;28;20469;-57
2022/07/24 09:23:25;;;;;;;9.83;8.30;;;33.20;76.20;;;;;;5053783;28;20452;-56
2022/07/24 09:25:55;;;;;;;8.90;8.20;;;34.20;74.80;;;;;;5052313;28;20532;-57
2022/07/24 09:28:25;;;;;;;8.93;8.33;;;34.70;71.70;;;;;;5053340;28;20464;-57
2022/07/24 09:30:52;;;;;;;9.23;8.43;;;34.40;70.30;;;;;;5053751;28;20518;-56
2022/07/24 09:33:21;;;;;;;8.70;7.97;;;34.00;73.60;;;;;;5053164;28;20967;-57
2022/07/24 09:35:50;;;;;;;9.23;8.50;;;34.30;71.40;;;;;;5053049;28;20477;-57
2022/07/24 09:38:18;;;;;;;10.70;9.80;;;34.20;70.40;;;;;;5053406;28;20535;-56
2022/07/24 09:40:51;;;;;;;10.63;8.37;;;33.70;70.30;;;;;;5053397;28;20833;-57
2022/07/24 09:43:21;;;;;;;9.17;8.47;;;32.80;73.00;;;;;;5053288;28;20429;-56
2022/07/24 09:45:54;;;;;;;9.90;9.20;;;33.00;74.80;;;;;;5053422;28;20441;-56
2022/07/24 09:48:25;;;;;;;9.60;8.70;;;32.50;74.40;;;;;;5053106;28;20532;-56
2022/07/24 09:50:54;;;;;;;8.80;8.07;;;31.80;73.70;;;;;;5053084;28;20472;-56
2022/07/24 09:53:23;;;;;;;10.17;9.17;;;31.30;75.40;;;;;;5052912;28;20995;-56
2022/07/24 09:56:09;;;;;;;9.33;8.60;;;;;;;;;;5053046;28;20484;-56
2022/07/24 09:58:38;;;;;;;9.90;8.90;;;30.50;76.30;;;;;;5052836;28;20434;-56
2022/07/24 10:01:09;;;;;;;9.90;9.10;;;30.50;77.30;;;;;;5053233;28;20511;-56
2022/07/24 10:03:39;;;;;;;9.73;8.93;;;30.20;78.80;;;;;;5053143;28;20449;-56
2022/07/24 10:06:09;;;;;;;10.53;9.63;;;29.90;79.20;;;;;;5052797;28;20464;-56
2022/07/24 10:08:39;;;;;;;10.63;9.63;;;29.80;81.70;;;;;;5053225;28;20476;-57
2022/07/24 10:11:09;;;;;;;10.57;9.67;;;29.70;80.90;;;;;;5053385;28;20465;-56
2022/07/24 10:13:37;;;;;;;9.70;8.77;;;30.20;80.70;;;;;;5052627;28;20531;-57
2022/07/24 10:16:28;;;;;;;9.77;8.90;;;31.60;79.40;;;;;;5052638;28;20481;-57
2022/07/24 10:18:57;;;;;;;11.90;10.13;;;33.10;75.50;;;;;;5053075;28;20899;-56
2022/07/24 10:21:26;;;;;;;10.77;9.77;;;33.20;74.10;;;;;;5053026;28;20890;-56
2022/07/24 10:24:25;;;;;;;8.77;8.00;;;34.00;72.70;;;;;;5052915;28;20933;-57
2022/07/24 10:27:04;;;;;;;8.83;8.13;;;34.50;70.40;;;;;;5052720;28;20435;-57
2022/07/24 10:29:36;;;;;;;9.23;8.37;;;34.50;70.10;;;;;;5052627;28;21031;-56
2022/07/24 10:32:04;;;;;;;9.17;8.50;;;34.50;69.00;;;;;;5052846;28;20436;-57
2022/07/24 10:34:44;;;;;;;9.33;8.43;;;34.80;67.60;;;;;;5052368;28;20488;-57
2022/07/24 10:37:16;;;;;;;8.60;7.93;;;34.20;66.60;;;;;;5053610;28;20429;-57
2022/07/24 10:39:52;;;;;;;9.00;8.20;;;35.20;67.10;;;;;;5056584;28;20947;-57
2022/07/24 10:42:21;;;;;;;8.57;7.90;;;35.20;65.40;;;;;;5056334;28;20920;-57
2022/07/24 10:45:16;;;;;;;8.93;8.13;;;34.80;64.40;;;;;;5056626;28;20543;-56
2022/07/24 10:47:44;;;;;;;7.73;7.23;;;34.70;65.80;;;;;;5056792;28;20478;-57
2022/07/24 10:50:11;;;;;;;8.73;7.93;;;34.70;62.90;;;;;;5056217;28;20519;-57
2022/07/24 10:52:41;;;;;;;9.00;8.30;;;34.80;64.00;;;;;;5056371;28;20571;-57
2022/07/24 10:55:41;;;;;;;9.20;8.33;;;35.40;62.30;;;;;;5056131;28;20484;-56
2022/07/24 10:58:15;;;;;;;8.23;7.53;;;35.40;63.50;;;;;;4994634;28;20427;-57
2022/07/24 11:00:46;;;;;;;8.20;7.60;;;35.80;61.30;;;;;;4994196;28;20462;-57
2022/07/24 11:03:20;;;;;;;8.60;7.90;;;35.70;61.50;;;;;;5025746;28;20540;-59
2022/07/24 11:06:04;;;;;;;9.17;8.37;;;35.80;60.10;;;;;;5055921;28;20508;-57
2022/07/24 11:08:32;;;;;;;8.77;8.07;;;36.30;61.00;;;;;;5056204;28;20432;-56
2022/07/24 11:11:15;;;;;;;9.10;8.30;;;35.80;60.10;;;;;;5056224;28;20488;-57
2022/07/24 11:13:49;;;;;;;8.27;7.57;;;35.60;61.00;;;;;;5053749;28;20547;-60
2022/07/24 11:16:25;;;;;;;8.10;7.30;;;35.00;61.70;;;;;;5056080;28;20473;-64
2022/07/24 11:19:30;;;;;;;8.93;8.07;;;36.00;59.80;;;;;;5055865;28;20924;-65
2022/07/24 11:22:11;;;;;;;9.23;8.53;;;35.30;59.80;;;;;;5055464;28;20456;-58
2022/07/24 11:24:43;;;;;;;9.40;8.53;;;33.30;64.10;;;;;;5055674;28;20905;-60
2022/07/24 11:27:22;;;;;;;9.33;8.63;;;32.80;64.10;;;;;;5055690;28;20518;-63
2022/07/24 11:29:54;;;;;;;9.57;8.70;;;33.60;63.70;;;;;;5055417;28;20460;-55
2022/07/24 11:32:21;;;;;;;11.00;8.27;;;34.10;61.20;;;;;;5055212;28;20448;-56
2022/07/24 11:34:50;;;;;;;9.43;8.53;;;34.00;62.20;;;;;;5055503;28;20543;-57
2022/07/24 11:37:18;;;;;;;8.80;8.00;;;34.10;61.30;;;;;;5055939;28;20449;-60
2022/07/24 11:39:47;;;;;;;9.10;8.40;;;34.20;60.50;;;;;;5055338;28;20504;-56
2022/07/24 11:42:16;;;;;;;8.60;7.90;;;33.30;62.50;;;;;;5054751;28;21003;-50
2022/07/24 11:44:44;;;;;;;8.63;7.80;;;32.40;63.60;;;;;;5055036;28;20971;-60
2022/07/24 11:47:15;;;;;;;9.80;8.87;;;31.50;64.70;;;;;;5055128;28;20437;-56
2022/07/24 11:49:45;;;;;;;9.20;8.43;;;31.40;65.40;;;;;;5053735;28;20465;-59
2022/07/24 11:52:18;;;;;;;8.90;7.83;;;31.50;66.90;;;;;;5055169;28;20461;-58
2022/07/24 11:54:46;;;;;;;9.53;8.73;;;32.20;68.70;;;;;;5055035;28;20447;-56
2022/07/24 11:57:19;;;;;;;9.67;8.87;;;33.20;63.70;;;;;;5045876;28;21350;-54
2022/07/24 11:59:47;;;;;;;9.67;8.87;;;33.70;64.50;;;;;;5053546;28;20552;-53
2022/07/24 12:02:17;;;;;;;9.80;8.80;;;34.20;60.60;;;;;;5053254;28;20447;-65
2022/07/24 12:04:47;;;;;;;8.77;8.13;;;34.50;60.30;;;;;;5053678;28;20532;-67
2022/07/24 12:07:18;;;;;;;8.93;8.00;;;34.40;60.60;;;;;;5051886;28;20503;-60
2022/07/24 12:09:47;;;;;;;8.30;7.60;;;34.60;60.90;;;;;;5053787;28;20472;-58
2022/07/24 12:12:26;;;;;;;8.37;7.77;;;35.10;60.70;;;;;;5053630;28;20452;-58
2022/07/24 12:15:00;;;;;;;8.65;7.95;;;34.80;59.40;;;;;;5053394;28;20924;-61
2022/07/24 12:17:29;;;;;;;8.60;7.80;;;34.10;58.90;;;;;;5054013;28;20440;-56
2022/07/24 12:19:58;;;;;;;8.10;7.40;;;34.40;59.80;;;;;;5052785;28;20469;-62
2022/07/24 12:22:27;;;;;;;8.43;7.70;;;34.40;60.30;;;;;;5053550;28;20445;-58
2022/07/24 12:24:55;;;;;;;8.97;8.07;;;34.60;59.20;;;;;;5053388;28;20448;-63
2022/07/24 12:27:40;;;;;;;8.20;7.50;;;34.90;57.80;;;;;;5052623;28;20440;-58
2022/07/24 12:30:22;;;;;;;8.57;7.90;;;35.60;58.80;;;;;;5053999;28;20846;-63
2022/07/24 12:33:00;;;;;;;8.43;7.80;;;35.70;58.00;;;;;;5053990;28;20436;-58
2022/07/24 12:35:28;;;;;;;9.27;8.50;;;34.90;56.40;;;;;;5053627;28;20913;-57
2022/07/24 12:37:58;;;;;;;8.47;7.53;;;34.40;56.90;;;;;;5054014;28;20449;-65
2022/07/24 12:40:28;;;;;;;8.57;7.83;;;34.70;57.90;;;;;;5052798;28;20460;-63
2022/07/24 12:43:04;;;;;;;9.47;8.63;;;34.90;56.50;;;;;;5053618;28;20439;-60
2022/07/24 12:45:31;;;;;;;9.90;8.07;;;34.90;57.30;;;;;;5053585;28;20420;-61